Smethport, Pennsylvania
Current Conditions -  °F | °C
As of 4:06 AM on Sunday 21 Dec 2014 (Local Time) from KBFD Reporting Station
Overcast Overcast  
Wind Chill: 23°   Ceiling: 600
Heat Index: 23°   Visibility: 8mi
Dew Point: 19°   Wind: 3mph
Humidity: 85%   Direction: 270°W
Pressure: 30.2"   Gusts: NA
Location:  41.81°N, 78.44°W
Report Text: KBFD 210906Z AUTO 27003KT 8SM BKN006 OVC011 M05/M07 A3020 RMK AO2 T10501072
Loading
Personal Weather Stations






























Interactive Weather Map New forecast layout! Learn more

10-Day Weather Forecast

Advertisements
Track Severe Weather on mobile